createdAt,value
2023-02-19T00:01:53.365Z,10.62
2023-02-19T00:04:22.854Z,10.58
2023-02-19T00:06:51.148Z,10.67
2023-02-19T00:09:20.209Z,10.62
2023-02-19T00:11:48.506Z,10.55
2023-02-19T00:14:20.888Z,10.62
2023-02-19T00:16:49.485Z,10.70
2023-02-19T00:19:19.582Z,10.65
2023-02-19T00:21:47.540Z,10.73
2023-02-19T00:24:17.058Z,10.69
2023-02-19T00:26:46.227Z,10.62
2023-02-19T00:29:20.884Z,10.54
2023-02-19T00:31:49.102Z,10.52
2023-02-19T00:34:16.836Z,10.44
2023-02-19T00:36:45.221Z,10.36
2023-02-19T00:39:16.180Z,10.38
2023-02-19T00:41:44.463Z,10.32
2023-02-19T00:44:13.684Z,10.30
2023-02-19T00:46:44.235Z,10.27
2023-02-19T00:49:18.110Z,10.29
2023-02-19T00:51:48.051Z,10.37
2023-02-19T00:54:16.464Z,10.47
2023-02-19T00:56:44.148Z,10.44
2023-02-19T00:59:12.305Z,10.52
2023-02-19T01:01:40.003Z,10.54
2023-02-19T01:04:10.082Z,10.52
2023-02-19T01:06:38.080Z,10.49
2023-02-19T01:09:07.186Z,10.53
2023-02-19T01:11:35.262Z,10.52
2023-02-19T01:14:04.864Z,10.52
2023-02-19T01:16:32.520Z,10.57
2023-02-19T01:19:02.746Z,10.57
2023-02-19T01:21:31.783Z,10.55
2023-02-19T01:24:00.170Z,10.60
2023-02-19T01:26:31.309Z,10.67
2023-02-19T01:29:00.228Z,10.63
2023-02-19T01:31:28.758Z,10.64
2023-02-19T01:33:59.854Z,10.58
2023-02-19T01:36:28.618Z,10.53
2023-02-19T01:38:56.642Z,10.53
2023-02-19T01:41:26.954Z,10.56
2023-02-19T01:44:07.906Z,10.60
2023-02-19T01:46:39.999Z,10.51
2023-02-19T01:49:15.239Z,10.39
2023-02-19T01:51:47.529Z,10.23
2023-02-19T01:54:21.471Z,10.09
2023-02-19T01:56:50.984Z,9.99
2023-02-19T01:59:19.670Z,10.02
2023-02-19T02:01:49.852Z,10.00
2023-02-19T02:04:19.893Z,9.87
2023-02-19T02:06:54.481Z,10.13
2023-02-19T02:09:42.861Z,10.19
2023-02-19T02:12:13.615Z,10.24
2023-02-19T02:14:49.163Z,10.23
2023-02-19T02:17:50.876Z,10.51
2023-02-19T02:20:40.255Z,10.44
2023-02-19T02:23:23.660Z,10.31
2023-02-19T02:26:29.732Z,10.35
2023-02-19T02:28:57.268Z,10.35
2023-02-19T02:31:31.679Z,10.36
2023-02-19T02:33:59.265Z,10.47
2023-02-19T02:36:49.790Z,10.45
2023-02-19T02:39:21.787Z,10.47
2023-02-19T02:42:11.415Z,10.47
2023-02-19T02:45:06.637Z,10.44
2023-02-19T02:47:42.540Z,10.42
2023-02-19T02:50:16.875Z,10.42
2023-02-19T02:53:03.910Z,10.37
2023-02-19T02:55:36.989Z,10.39
2023-02-19T02:58:06.096Z,10.44
2023-02-19T03:00:49.479Z,10.40
2023-02-19T03:03:22.537Z,10.39
2023-02-19T03:05:57.661Z,10.31
2023-02-19T03:08:32.786Z,10.30
2023-02-19T03:11:29.986Z,10.34
2023-02-19T03:14:27.806Z,10.37
2023-02-19T03:17:19.290Z,10.40
2023-02-19T03:19:51.018Z,10.40
2023-02-19T03:22:23.712Z,10.41
2023-02-19T03:25:24.101Z,10.39
2023-02-19T03:27:53.426Z,10.26
2023-02-19T03:30:25.476Z,10.15
2023-02-19T03:32:59.521Z,9.96
2023-02-19T03:35:31.911Z,9.80
2023-02-19T03:38:09.921Z,9.86
2023-02-19T03:40:52.351Z,10.00
2023-02-19T03:43:31.386Z,10.02
2023-02-19T03:46:09.718Z,9.88
2023-02-19T03:48:43.712Z,9.63
2023-02-19T03:51:21.635Z,9.50
2023-02-19T03:53:59.847Z,9.56
2023-02-19T03:56:54.997Z,9.43
2023-02-19T03:59:33.347Z,9.28
2023-02-19T04:02:13.219Z,9.10
2023-02-19T04:04:46.988Z,9.01
2023-02-19T04:07:14.901Z,9.03
2023-02-19T04:09:49.378Z,9.00
2023-02-19T04:12:18.857Z,9.11
2023-02-19T04:15:20.644Z,9.09
2023-02-19T04:17:56.552Z,9.07
2023-02-19T04:20:31.061Z,9.22
2023-02-19T04:22:59.077Z,9.34
2023-02-19T04:25:28.749Z,9.15
2023-02-19T04:27:56.477Z,9.04
2023-02-19T04:30:24.166Z,8.95
2023-02-19T04:32:51.819Z,8.87
2023-02-19T04:35:19.437Z,8.91
2023-02-19T04:37:47.234Z,8.81
2023-02-19T04:40:16.349Z,8.69
2023-02-19T04:42:44.025Z,8.56
2023-02-19T04:45:13.757Z,8.44
2023-02-19T04:47:41.389Z,8.36
2023-02-19T04:50:10.273Z,8.26
2023-02-19T04:52:37.881Z,8.20
2023-02-19T04:55:05.869Z,8.16
2023-02-19T04:57:33.530Z,8.15
2023-02-19T05:00:04.236Z,8.20
2023-02-19T05:02:31.935Z,8.29
2023-02-19T05:05:01.868Z,8.33
2023-02-19T05:07:29.479Z,8.43
2023-02-19T05:09:57.087Z,8.43
2023-02-19T05:12:24.678Z,8.48
2023-02-19T05:14:54.424Z,8.56
2023-02-19T05:17:23.526Z,8.60
2023-02-19T05:19:56.026Z,8.66
2023-02-19T05:22:23.677Z,8.69
2023-02-19T05:24:51.284Z,8.72
2023-02-19T05:27:18.906Z,8.72
2023-02-19T05:29:46.594Z,8.71
2023-02-19T05:32:16.696Z,8.69
2023-02-19T05:34:44.304Z,8.64
2023-02-19T05:37:12.004Z,8.56
2023-02-19T05:39:39.725Z,8.48
2023-02-19T05:42:07.632Z,8.43
2023-02-19T05:44:35.231Z,8.31
2023-02-19T05:47:02.937Z,8.21
2023-02-19T05:49:30.554Z,8.17
2023-02-19T05:52:00.528Z,8.09
2023-02-19T05:54:30.666Z,8.03
2023-02-19T05:56:58.342Z,8.07
2023-02-19T05:59:28.813Z,8.10
2023-02-19T06:01:58.301Z,8.13
2023-02-19T06:04:25.936Z,8.11
2023-02-19T06:06:53.560Z,8.13
2023-02-19T06:09:21.172Z,8.17
2023-02-19T06:11:51.239Z,8.17
2023-02-19T06:14:18.855Z,8.21
2023-02-19T06:16:46.626Z,8.21
2023-02-19T06:19:14.200Z,8.20
2023-02-19T06:21:41.815Z,8.12
2023-02-19T06:24:10.604Z,8.14
2023-02-19T06:26:39.213Z,8.22
2023-02-19T06:29:06.888Z,8.21
2023-02-19T06:31:34.903Z,8.26
2023-02-19T06:34:05.842Z,8.23
2023-02-19T06:36:33.530Z,8.33
2023-02-19T06:39:01.778Z,8.33
2023-02-19T06:41:31.999Z,8.44
2023-02-19T06:44:02.310Z,8.48
2023-02-19T06:46:29.944Z,8.48
2023-02-19T06:48:57.628Z,8.50
2023-02-19T06:51:27.220Z,8.49
2023-02-19T06:53:54.837Z,8.48
2023-02-19T06:56:25.199Z,8.50
2023-02-19T06:58:54.220Z,8.47
2023-02-19T07:01:23.354Z,8.43
2023-02-19T07:03:53.966Z,8.48
2023-02-19T07:06:23.876Z,8.49
2023-02-19T07:08:52.536Z,8.49
2023-02-19T07:11:20.344Z,8.49
2023-02-19T07:13:47.999Z,8.51
2023-02-19T07:16:20.543Z,8.50
2023-02-19T07:18:48.246Z,8.52
2023-02-19T07:21:19.261Z,8.63
2023-02-19T07:23:49.278Z,8.63
2023-02-19T07:26:20.721Z,8.70
2023-02-19T07:28:50.557Z,8.72
2023-02-19T07:31:20.481Z,8.77
2023-02-19T07:33:51.273Z,8.80
2023-02-19T07:36:25.470Z,8.79
2023-02-19T07:39:04.424Z,8.79
2023-02-19T07:41:34.419Z,8.79
2023-02-19T07:44:02.110Z,8.84
2023-02-19T07:46:30.031Z,8.92
2023-02-19T07:48:57.743Z,9.01
2023-02-19T07:51:25.423Z,9.04
2023-02-19T07:53:53.351Z,9.14
2023-02-19T07:56:21.569Z,9.16
2023-02-19T07:58:49.454Z,9.26
2023-02-19T08:01:44.253Z,9.32
2023-02-19T08:04:15.099Z,9.37
2023-02-19T08:06:43.742Z,9.42
2023-02-19T08:09:22.177Z,9.47
2023-02-19T08:12:10.014Z,9.50
2023-02-19T08:14:40.037Z,9.48
2023-02-19T08:17:07.745Z,9.49
2023-02-19T08:19:39.868Z,9.47
2023-02-19T08:22:07.629Z,9.46
2023-02-19T08:24:36.178Z,9.37
2023-02-19T08:27:06.667Z,9.32
2023-02-19T08:29:36.658Z,9.36
2023-02-19T08:32:04.376Z,9.33
2023-02-19T08:34:32.016Z,9.46
2023-02-19T08:37:02.011Z,9.54
2023-02-19T08:39:29.660Z,9.68
2023-02-19T08:41:57.295Z,9.87
2023-02-19T08:44:24.963Z,10.08
2023-02-19T08:46:52.733Z,10.25
2023-02-19T08:49:20.367Z,10.44
2023-02-19T08:51:47.999Z,10.52
2023-02-19T08:54:15.645Z,10.36
2023-02-19T08:56:45.867Z,10.28
2023-02-19T08:59:14.158Z,10.39
2023-02-19T09:01:41.910Z,10.50
2023-02-19T09:04:13.743Z,10.59
2023-02-19T09:06:41.687Z,10.58
2023-02-19T09:09:09.827Z,10.67
2023-02-19T09:11:40.299Z,10.70
2023-02-19T09:14:11.339Z,10.73
2023-02-19T09:16:42.321Z,10.67
2023-02-19T09:19:10.042Z,10.54
2023-02-19T09:21:40.304Z,10.40
2023-02-19T09:24:10.496Z,10.26
2023-02-19T09:26:38.737Z,10.17
2023-02-19T09:29:08.799Z,10.15
2023-02-19T09:31:36.706Z,10.09
2023-02-19T09:34:07.523Z,10.17
2023-02-19T09:36:35.136Z,10.34
2023-02-19T09:39:04.568Z,10.33
2023-02-19T09:41:37.864Z,10.33
2023-02-19T09:44:10.941Z,10.33
2023-02-19T09:46:52.281Z,10.44
2023-02-19T09:49:35.794Z,10.65
2023-02-19T09:52:19.386Z,10.88
2023-02-19T09:54:51.240Z,11.07
2023-02-19T09:57:23.260Z,11.34
2023-02-19T10:00:14.902Z,11.41
2023-02-19T10:02:42.586Z,11.42
2023-02-19T10:05:17.662Z,11.25
2023-02-19T10:07:47.838Z,11.72
2023-02-19T10:10:15.453Z,11.70
2023-02-19T10:12:52.588Z,13.32
2023-02-19T10:15:20.156Z,14.13
2023-02-19T10:17:50.100Z,15.14
2023-02-19T10:20:24.754Z,16.44
2023-02-19T10:23:11.787Z,17.67
2023-02-19T10:25:47.517Z,17.92
2023-02-19T10:28:24.095Z,18.17
2023-02-19T10:30:59.261Z,19.08
2023-02-19T10:33:27.788Z,19.35
2023-02-19T10:36:05.569Z,19.30
2023-02-19T10:38:39.941Z,18.12
2023-02-19T10:41:14.302Z,17.21
2023-02-19T10:43:51.458Z,16.77
2023-02-19T10:46:29.665Z,16.76
2023-02-19T10:49:00.675Z,17.27
2023-02-19T10:51:38.068Z,17.79
2023-02-19T10:54:31.219Z,17.25
2023-02-19T10:57:21.113Z,17.72
2023-02-19T10:59:57.630Z,17.98
2023-02-19T11:02:28.886Z,18.47
2023-02-19T11:05:12.306Z,19.10
2023-02-19T11:07:45.887Z,18.97
2023-02-19T11:10:42.300Z,19.56
2023-02-19T11:13:17.742Z,20.20
2023-02-19T11:15:56.285Z,20.64
2023-02-19T11:18:32.468Z,20.72
2023-02-19T11:21:08.204Z,19.62
2023-02-19T11:23:39.530Z,19.70
2023-02-19T11:26:16.855Z,19.90
2023-02-19T11:28:45.297Z,18.75
2023-02-19T11:31:25.000Z,18.87
2023-02-19T11:34:00.092Z,19.64
2023-02-19T11:36:30.395Z,19.94
2023-02-19T11:39:19.721Z,20.32
2023-02-19T11:41:53.702Z,20.23
2023-02-19T11:44:41.614Z,19.75
2023-02-19T11:47:11.923Z,19.90
2023-02-19T11:49:51.320Z,20.88
2023-02-19T11:52:25.495Z,20.35
2023-02-19T11:55:05.265Z,21.03
2023-02-19T11:58:03.920Z,20.63
2023-02-19T12:00:32.473Z,20.24
2023-02-19T12:03:00.120Z,20.62
2023-02-19T12:05:33.954Z,20.14
2023-02-19T12:08:21.469Z,20.08
2023-02-19T12:11:11.030Z,19.66
2023-02-19T12:14:09.583Z,19.41
2023-02-19T12:17:00.273Z,18.86
2023-02-19T12:20:01.191Z,18.63
2023-02-19T12:22:34.626Z,18.62
2023-02-19T12:25:25.651Z,18.76
2023-02-19T12:28:28.148Z,18.90
2023-02-19T12:31:05.463Z,19.12
2023-02-19T12:33:50.337Z,19.10
2023-02-19T12:36:24.009Z,18.82
2023-02-19T12:39:08.258Z,18.17
2023-02-19T12:42:08.528Z,17.55
2023-02-19T12:44:43.275Z,18.10
2023-02-19T12:47:19.614Z,18.49
2023-02-19T12:50:06.657Z,18.93
2023-02-19T12:52:42.600Z,19.68
2023-02-19T12:55:28.431Z,19.34
2023-02-19T12:58:01.750Z,19.33
2023-02-19T13:00:32.619Z,19.46
2023-02-19T13:03:20.775Z,18.56
2023-02-19T13:05:48.383Z,16.34
2023-02-19T13:08:25.250Z,15.96
2023-02-19T13:11:00.656Z,15.10
2023-02-19T13:13:41.975Z,15.13
2023-02-19T13:16:18.771Z,14.49
2023-02-19T13:18:56.787Z,14.45
2023-02-19T13:21:48.860Z,14.35
2023-02-19T13:24:37.814Z,15.35
2023-02-19T13:27:29.379Z,15.53
2023-02-19T13:30:37.934Z,15.91
2023-02-19T13:33:30.498Z,16.24
2023-02-19T13:36:13.435Z,15.73
2023-02-19T13:38:45.126Z,15.44
2023-02-19T13:41:29.891Z,15.74
2023-02-19T13:44:01.781Z,15.63
2023-02-19T13:46:43.114Z,15.30
2023-02-19T13:49:46.083Z,14.88
2023-02-19T13:52:33.498Z,14.43
2023-02-19T13:55:42.099Z,14.24
2023-02-19T13:58:37.942Z,14.16
2023-02-19T14:01:14.103Z,13.55
2023-02-19T14:03:50.916Z,12.27
2023-02-19T14:06:28.526Z,11.46
2023-02-19T14:09:00.353Z,10.70
2023-02-19T14:11:44.027Z,10.06
2023-02-19T14:14:53.709Z,9.69
2023-02-19T14:17:47.633Z,9.60
2023-02-19T14:20:18.209Z,9.62
2023-02-19T14:22:49.890Z,9.58
2023-02-19T14:26:05.043Z,9.64
2023-02-19T14:28:44.001Z,9.66
2023-02-19T14:31:27.638Z,9.71
2023-02-19T14:34:04.823Z,9.75
2023-02-19T14:36:32.351Z,9.84
2023-02-19T14:39:08.103Z,10.00
2023-02-19T14:41:40.424Z,10.17
2023-02-19T14:44:16.309Z,10.35
2023-02-19T14:47:06.439Z,10.47
2023-02-19T14:49:46.451Z,10.40
2023-02-19T14:52:25.611Z,10.38
2023-02-19T14:55:04.774Z,10.41
2023-02-19T14:57:41.876Z,10.27
2023-02-19T15:00:38.266Z,10.19
2023-02-19T15:03:44.844Z,10.02
2023-02-19T15:06:20.199Z,9.88
2023-02-19T15:08:53.883Z,9.81
2023-02-19T15:11:24.740Z,9.76
2023-02-19T15:13:57.171Z,9.70
2023-02-19T15:16:26.965Z,9.61
2023-02-19T15:18:59.814Z,9.58
2023-02-19T15:21:31.053Z,9.62
2023-02-19T15:24:02.692Z,9.65
2023-02-19T15:26:36.922Z,9.70
2023-02-19T15:29:11.619Z,9.58
2023-02-19T15:31:49.794Z,9.60
2023-02-19T15:34:24.403Z,9.50
2023-02-19T15:36:57.509Z,9.52
2023-02-19T15:39:30.361Z,9.42
2023-02-19T15:42:01.403Z,9.33
2023-02-19T15:44:32.361Z,9.22
2023-02-19T15:47:07.098Z,9.08
2023-02-19T15:49:46.531Z,9.07
2023-02-19T15:52:32.755Z,9.04
2023-02-19T15:55:26.812Z,8.88
2023-02-19T15:58:06.072Z,8.87
2023-02-19T16:00:51.386Z,8.88
2023-02-19T16:03:21.861Z,8.98
2023-02-19T16:06:14.917Z,8.99
2023-02-19T16:08:46.421Z,9.01
2023-02-19T16:11:31.055Z,8.94
2023-02-19T16:14:23.382Z,9.12
2023-02-19T16:16:58.252Z,9.08
2023-02-19T16:19:29.769Z,9.05
2023-02-19T16:21:59.490Z,9.06
2023-02-19T16:24:34.881Z,9.07
2023-02-19T16:27:03.870Z,9.06
2023-02-19T16:29:36.654Z,8.99
2023-02-19T16:32:07.188Z,8.96
2023-02-19T16:34:43.992Z,9.05
2023-02-19T16:37:41.082Z,9.09
2023-02-19T16:40:11.787Z,9.00
2023-02-19T16:43:14.361Z,9.09
2023-02-19T16:45:48.596Z,9.23
2023-02-19T16:48:16.647Z,9.31
2023-02-19T16:50:46.271Z,9.24
2023-02-19T16:53:24.902Z,9.15
2023-02-19T16:55:52.835Z,9.19
2023-02-19T16:58:22.836Z,9.10
2023-02-19T17:00:52.698Z,8.91
2023-02-19T17:03:23.784Z,8.80
2023-02-19T17:05:51.796Z,8.67
2023-02-19T17:08:40.267Z,8.59
2023-02-19T17:11:14.474Z,8.64
2023-02-19T17:13:43.132Z,8.60
2023-02-19T17:16:19.709Z,8.52
2023-02-19T17:18:47.366Z,8.47
2023-02-19T17:21:22.427Z,8.45
2023-02-19T17:23:50.598Z,8.42
2023-02-19T17:26:21.373Z,8.40
2023-02-19T17:28:49.609Z,8.31
2023-02-19T17:31:19.824Z,8.25
2023-02-19T17:33:50.112Z,8.18
2023-02-19T17:36:26.915Z,8.13
2023-02-19T17:38:55.524Z,8.05
2023-02-19T17:41:23.207Z,8.01
2023-02-19T17:43:51.691Z,7.98
2023-02-19T17:46:24.303Z,7.98
2023-02-19T17:48:52.585Z,7.92
2023-02-19T17:51:21.092Z,7.84
2023-02-19T17:53:48.709Z,7.79
2023-02-19T17:56:19.306Z,7.82
2023-02-19T17:58:49.439Z,7.79
2023-02-19T18:01:17.365Z,7.78
2023-02-19T18:03:45.108Z,7.73
2023-02-19T18:06:15.173Z,7.86
2023-02-19T18:08:55.443Z,7.87
2023-02-19T18:11:26.219Z,7.89
2023-02-19T18:13:53.860Z,7.94
2023-02-19T18:16:21.653Z,8.01
2023-02-19T18:18:49.326Z,8.10
2023-02-19T18:21:19.277Z,8.02
2023-02-19T18:23:47.915Z,7.95
2023-02-19T18:26:20.504Z,7.89
2023-02-19T18:28:48.574Z,7.86
2023-02-19T18:31:16.372Z,7.72
2023-02-19T18:33:44.235Z,7.64
2023-02-19T18:36:13.100Z,7.61
2023-02-19T18:38:43.393Z,7.59
2023-02-19T18:41:20.234Z,7.58
2023-02-19T18:43:50.560Z,7.56
2023-02-19T18:46:23.925Z,7.57
2023-02-19T18:48:51.596Z,7.53
2023-02-19T18:51:19.260Z,7.49
2023-02-19T18:53:47.042Z,7.35
2023-02-19T18:56:14.677Z,7.28
2023-02-19T18:58:42.311Z,7.20
2023-02-19T19:01:14.894Z,7.13
2023-02-19T19:03:42.696Z,7.10
2023-02-19T19:06:10.349Z,7.11
2023-02-19T19:08:37.972Z,7.17
2023-02-19T19:11:06.035Z,7.35
2023-02-19T19:13:33.677Z,7.57
2023-02-19T19:16:01.628Z,7.74
2023-02-19T19:18:31.234Z,7.81
2023-02-19T19:21:03.169Z,7.86
2023-02-19T19:23:30.800Z,7.89
2023-02-19T19:25:58.859Z,7.96
2023-02-19T19:28:26.459Z,8.01
2023-02-19T19:30:54.160Z,8.03
2023-02-19T19:33:23.170Z,8.05
2023-02-19T19:35:50.819Z,8.08
2023-02-19T19:38:18.598Z,8.05
2023-02-19T19:40:46.220Z,8.03
2023-02-19T19:43:13.983Z,7.99
2023-02-19T19:45:43.846Z,7.93
2023-02-19T19:48:11.525Z,7.86
2023-02-19T19:50:41.596Z,7.77
2023-02-19T19:53:09.226Z,7.67
2023-02-19T19:55:36.850Z,7.60
2023-02-19T19:58:06.878Z,7.56
2023-02-19T20:00:34.484Z,7.53
2023-02-19T20:03:03.029Z,7.42
2023-02-19T20:05:30.740Z,7.33
2023-02-19T20:08:00.441Z,7.30
2023-02-19T20:10:28.086Z,7.27
2023-02-19T20:12:55.706Z,7.22
2023-02-19T20:15:23.989Z,7.21
2023-02-19T20:17:51.725Z,7.20
2023-02-19T20:20:21.521Z,7.18
2023-02-19T20:22:50.334Z,7.15
2023-02-19T20:25:18.083Z,7.21
2023-02-19T20:27:48.212Z,7.23
2023-02-19T20:30:17.309Z,7.19
2023-02-19T20:32:45.216Z,7.12
2023-02-19T20:35:13.113Z,7.11
2023-02-19T20:37:41.697Z,7.10
2023-02-19T20:40:13.205Z,7.05
2023-02-19T20:42:40.820Z,7.03
2023-02-19T20:45:08.853Z,7.01
2023-02-19T20:47:37.671Z,7.00
2023-02-19T20:50:06.278Z,6.99
2023-02-19T20:52:34.183Z,6.96
2023-02-19T20:55:02.033Z,7.00
2023-02-19T20:57:29.659Z,7.00
2023-02-19T20:59:57.269Z,6.96
2023-02-19T21:02:29.130Z,6.92
2023-02-19T21:04:58.048Z,6.91
2023-02-19T21:07:26.828Z,6.89
2023-02-19T21:09:54.845Z,6.88
2023-02-19T21:12:23.795Z,6.84
2023-02-19T21:14:51.429Z,6.78
2023-02-19T21:17:19.160Z,6.65
2023-02-19T21:19:50.132Z,6.49
2023-02-19T21:22:18.110Z,6.32
2023-02-19T21:24:51.994Z,6.14
2023-02-19T21:27:21.001Z,6.02
2023-02-19T21:29:48.719Z,5.86
2023-02-19T21:32:16.450Z,5.75
2023-02-19T21:34:44.182Z,5.68
2023-02-19T21:37:11.825Z,5.58
2023-02-19T21:39:39.508Z,5.52
2023-02-19T21:42:09.532Z,5.46
2023-02-19T21:44:37.696Z,5.42
2023-02-19T21:47:05.395Z,5.44
2023-02-19T21:49:35.576Z,5.35
2023-02-19T21:52:03.347Z,5.26
2023-02-19T21:54:31.023Z,5.23
2023-02-19T21:57:03.697Z,5.20
2023-02-19T21:59:33.989Z,5.17
2023-02-19T22:02:01.550Z,5.16
2023-02-19T22:04:29.175Z,5.10
2023-02-19T22:06:57.654Z,5.02
2023-02-19T22:09:25.346Z,4.98
2023-02-19T22:11:52.997Z,4.95
2023-02-19T22:14:20.621Z,4.91
2023-02-19T22:16:48.345Z,4.87
2023-02-19T22:19:16.062Z,4.87
2023-02-19T22:21:45.447Z,4.83
2023-02-19T22:24:18.847Z,4.80
2023-02-19T22:26:46.811Z,4.72
2023-02-19T22:29:16.362Z,4.64
2023-02-19T22:31:44.810Z,4.61
2023-02-19T22:34:15.625Z,4.61
2023-02-19T22:36:43.782Z,4.56
2023-02-19T22:39:25.164Z,4.51
2023-02-19T22:41:53.539Z,4.51
2023-02-19T22:44:23.266Z,4.48
2023-02-19T22:46:56.648Z,4.42
2023-02-19T22:49:25.019Z,4.38
2023-02-19T22:52:08.480Z,4.31
2023-02-19T22:54:39.565Z,4.26
2023-02-19T22:57:07.256Z,4.26
2023-02-19T22:59:34.883Z,4.28
2023-02-19T23:02:05.012Z,4.30
2023-02-19T23:04:32.669Z,4.29
2023-02-19T23:07:00.236Z,4.31
2023-02-19T23:09:29.987Z,4.31
2023-02-19T23:12:09.311Z,4.29
2023-02-19T23:14:37.676Z,4.28
2023-02-19T23:17:05.551Z,4.26
2023-02-19T23:19:33.257Z,4.21
2023-02-19T23:22:00.957Z,4.23
2023-02-19T23:24:30.898Z,4.22
2023-02-19T23:26:59.674Z,4.18
2023-02-19T23:29:30.437Z,4.08
2023-02-19T23:32:00.983Z,4.12
2023-02-19T23:34:30.808Z,4.12
2023-02-19T23:37:00.610Z,4.09
2023-02-19T23:39:28.219Z,4.05
2023-02-19T23:41:58.509Z,4.03
2023-02-19T23:44:28.688Z,4.01
2023-02-19T23:46:58.619Z,4.01
2023-02-19T23:49:26.257Z,3.97
2023-02-19T23:51:53.876Z,3.92
2023-02-19T23:54:21.574Z,3.92
2023-02-19T23:56:49.243Z,3.90
2023-02-19T23:59:21.551Z,3.90
